FMNA

Arrachart Airport

Madagascar
METAR FMNA 160600Z 14012KT 9999 SCT020 28/18 Q1016
Observed Flight Rules
Oct-16 @ 06:00 UTC (41 minutes ago) Visual Flight Rules
Wind Visibility Clouds
140° at 12 knots 10,000+ meters
  • Scattered at 2,000' AGL
Temperatures Readings
Current 28°C / 82°F
Dewpoint 18°C / 64°F
Humidity 55%
Altimeter 30" Hg
Pressure 1016 hPa
Elevation 105
METAR FMNA 160600Z 14012KT 9999 SCT020 28/18 Q1016
Observed Flight Rules
Oct-16 @ 06:00 UTC
(41 minutes ago)
VFR
Wind Visibility
140° at 12 knots 10,000+ meters
Clouds
  • Scattered at 2,000' AGL
Temperature Dewpoint
28°C / 82°F 18°C / 64°F
Humidity Altimeter Pressure
55% 30" Hg 1016 hPa